sensor_id;sensor_type;location;lat;lon;timestamp;P1;durP1;ratioP1;P2;durP2;ratioP2
61696;SDS011;47610;52.252;20.922;2022-11-15T00:02:18;22.90;;;12.60;;
61696;SDS011;47610;52.252;20.922;2022-11-15T00:07:40;24.10;;;13.00;;
61696;SDS011;47610;52.252;20.922;2022-11-15T00:13:05;21.70;;;12.00;;
61696;SDS011;47610;52.252;20.922;2022-11-15T00:18:28;24.20;;;13.50;;
61696;SDS011;47610;52.252;20.922;2022-11-15T00:23:51;23.60;;;14.00;;
61696;SDS011;47610;52.252;20.922;2022-11-15T00:29:14;23.20;;;13.00;;
61696;SDS011;47610;52.252;20.922;2022-11-15T00:34:36;26.60;;;15.20;;
61696;SDS011;47610;52.252;20.922;2022-11-15T00:39:58;23.40;;;12.60;;
61696;SDS011;47610;52.252;20.922;2022-11-15T00:45:21;33.70;;;18.20;;
61696;SDS011;47610;52.252;20.922;2022-11-15T00:50:44;29.60;;;15.30;;
61696;SDS011;47610;52.252;20.922;2022-11-15T00:56:07;38.70;;;20.20;;
61696;SDS011;47610;52.252;20.922;2022-11-15T01:01:30;33.60;;;18.90;;
61696;SDS011;47610;52.252;20.922;2022-11-15T01:06:52;36.50;;;20.10;;
61696;SDS011;47610;52.252;20.922;2022-11-15T01:12:15;42.60;;;20.30;;
61696;SDS011;47610;52.252;20.922;2022-11-15T01:17:38;36.50;;;18.80;;
61696;SDS011;47610;52.252;20.922;2022-11-15T01:23:00;32.70;;;17.10;;
61696;SDS011;47610;52.252;20.922;2022-11-15T01:28:23;35.30;;;18.10;;
61696;SDS011;47610;52.252;20.922;2022-11-15T01:33:45;30.30;;;15.70;;
61696;SDS011;47610;52.252;20.922;2022-11-15T01:39:07;41.20;;;20.50;;
61696;SDS011;47610;52.252;20.922;2022-11-15T01:44:37;33.00;;;16.10;;
61696;SDS011;47610;52.252;20.922;2022-11-15T01:50:01;40.70;;;18.20;;
61696;SDS011;47610;52.252;20.922;2022-11-15T01:55:26;32.00;;;16.30;;
61696;SDS011;47610;52.252;20.922;2022-11-15T02:00:49;36.20;;;18.40;;
61696;SDS011;47610;52.252;20.922;2022-11-15T02:06:12;28.80;;;15.70;;
61696;SDS011;47610;52.252;20.922;2022-11-15T02:11:34;32.50;;;17.30;;
61696;SDS011;47610;52.252;20.922;2022-11-15T02:16:59;34.10;;;17.80;;
61696;SDS011;47610;52.252;20.922;2022-11-15T02:22:33;27.80;;;14.90;;
61696;SDS011;47610;52.252;20.922;2022-11-15T02:28:19;31.50;;;15.90;;
61696;SDS011;47610;52.252;20.922;2022-11-15T02:34:05;30.30;;;15.30;;
61696;SDS011;47610;52.252;20.922;2022-11-15T02:39:38;30.70;;;16.50;;
61696;SDS011;47610;52.252;20.922;2022-11-15T02:45:09;37.40;;;18.80;;
61696;SDS011;47610;52.252;20.922;2022-11-15T02:50:40;32.50;;;17.70;;
61696;SDS011;47610;52.252;20.922;2022-11-15T02:56:05;35.40;;;19.40;;
61696;SDS011;47610;52.252;20.922;2022-11-15T03:01:34;46.50;;;23.90;;
61696;SDS011;47610;52.252;20.922;2022-11-15T03:07:07;41.20;;;20.80;;
61696;SDS011;47610;52.252;20.922;2022-11-15T03:12:36;45.10;;;21.70;;
61696;SDS011;47610;52.252;20.922;2022-11-15T03:18:06;46.10;;;21.90;;
61696;SDS011;47610;52.252;20.922;2022-11-15T03:23:37;42.60;;;20.60;;
61696;SDS011;47610;52.252;20.922;2022-11-15T03:34:28;48.80;;;22.10;;
61696;SDS011;47610;52.252;20.922;2022-11-15T03:39:54;45.40;;;22.20;;
61696;SDS011;47610;52.252;20.922;2022-11-15T03:45:19;52.80;;;20.50;;
61696;SDS011;47610;52.252;20.922;2022-11-15T03:50:47;38.20;;;16.90;;
61696;SDS011;47610;52.252;20.922;2022-11-15T03:56:11;50.60;;;23.10;;
61696;SDS011;47610;52.252;20.922;2022-11-15T04:01:34;39.00;;;19.70;;
61696;SDS011;47610;52.252;20.922;2022-11-15T04:06:56;45.60;;;21.20;;
61696;SDS011;47610;52.252;20.922;2022-11-15T04:12:18;39.40;;;19.00;;
61696;SDS011;47610;52.252;20.922;2022-11-15T04:17:41;38.50;;;18.30;;
61696;SDS011;47610;52.252;20.922;2022-11-15T04:23:06;42.60;;;18.60;;
61696;SDS011;47610;52.252;20.922;2022-11-15T04:28:30;40.10;;;18.00;;
61696;SDS011;47610;52.252;20.922;2022-11-15T04:33:53;37.50;;;17.50;;
61696;SDS011;47610;52.252;20.922;2022-11-15T04:39:17;44.10;;;19.70;;
61696;SDS011;47610;52.252;20.922;2022-11-15T04:44:39;46.80;;;20.60;;
61696;SDS011;47610;52.252;20.922;2022-11-15T04:50:03;40.30;;;17.70;;
61696;SDS011;47610;52.252;20.922;2022-11-15T04:55:28;42.50;;;21.00;;
61696;SDS011;47610;52.252;20.922;2022-11-15T05:00:51;38.60;;;16.80;;
61696;SDS011;47610;52.252;20.922;2022-11-15T05:06:13;42.60;;;17.50;;
61696;SDS011;47610;52.252;20.922;2022-11-15T05:11:37;41.00;;;17.80;;
61696;SDS011;47610;52.252;20.922;2022-11-15T05:17:00;37.20;;;17.00;;
61696;SDS011;47610;52.252;20.922;2022-11-15T05:22:23;37.70;;;17.00;;
61696;SDS011;47610;52.252;20.922;2022-11-15T05:33:08;42.00;;;17.70;;
61696;SDS011;47610;52.252;20.922;2022-11-15T05:38:30;38.00;;;16.90;;
61696;SDS011;47610;52.252;20.922;2022-11-15T05:43:53;36.70;;;16.60;;
61696;SDS011;47610;52.252;20.922;2022-11-15T05:49:17;34.60;;;15.90;;
61696;SDS011;47610;52.252;20.922;2022-11-15T05:54:44;40.10;;;16.10;;
61696;SDS011;47610;52.252;20.922;2022-11-15T06:00:07;34.10;;;16.00;;
61696;SDS011;47610;52.252;20.922;2022-11-15T06:05:31;35.20;;;16.20;;
61696;SDS011;47610;52.252;20.922;2022-11-15T06:10:53;37.90;;;16.20;;
61696;SDS011;47610;52.252;20.922;2022-11-15T06:16:15;41.10;;;15.70;;
61696;SDS011;47610;52.252;20.922;2022-11-15T06:21:39;34.50;;;14.20;;
61696;SDS011;47610;52.252;20.922;2022-11-15T06:27:01;33.00;;;14.00;;
61696;SDS011;47610;52.252;20.922;2022-11-15T06:32:24;28.60;;;13.10;;
61696;SDS011;47610;52.252;20.922;2022-11-15T06:37:46;36.70;;;14.80;;
61696;SDS011;47610;52.252;20.922;2022-11-15T06:43:08;31.80;;;14.70;;
61696;SDS011;47610;52.252;20.922;2022-11-15T06:48:30;31.70;;;14.10;;
61696;SDS011;47610;52.252;20.922;2022-11-15T06:53:54;32.30;;;13.00;;
61696;SDS011;47610;52.252;20.922;2022-11-15T06:59:18;26.20;;;11.80;;
61696;SDS011;47610;52.252;20.922;2022-11-15T07:04:41;26.30;;;12.10;;
61696;SDS011;47610;52.252;20.922;2022-11-15T07:10:06;24.90;;;12.10;;
61696;SDS011;47610;52.252;20.922;2022-11-15T07:15:30;25.50;;;12.10;;
61696;SDS011;47610;52.252;20.922;2022-11-15T07:20:52;21.90;;;10.30;;
61696;SDS011;47610;52.252;20.922;2022-11-15T07:26:15;24.90;;;12.00;;
61696;SDS011;47610;52.252;20.922;2022-11-15T07:31:39;29.10;;;13.10;;
61696;SDS011;47610;52.252;20.922;2022-11-15T07:37:01;25.60;;;13.20;;
61696;SDS011;47610;52.252;20.922;2022-11-15T07:42:23;24.40;;;12.60;;
61696;SDS011;47610;52.252;20.922;2022-11-15T07:47:46;32.10;;;14.00;;
61696;SDS011;47610;52.252;20.922;2022-11-15T07:53:09;27.30;;;12.80;;
61696;SDS011;47610;52.252;20.922;2022-11-15T07:58:32;27.70;;;13.10;;
61696;SDS011;47610;52.252;20.922;2022-11-15T08:03:55;28.40;;;13.30;;
61696;SDS011;47610;52.252;20.922;2022-11-15T08:09:18;28.70;;;12.80;;
61696;SDS011;47610;52.252;20.922;2022-11-15T08:14:40;30.10;;;13.30;;
61696;SDS011;47610;52.252;20.922;2022-11-15T08:20:02;27.30;;;13.40;;
61696;SDS011;47610;52.252;20.922;2022-11-15T08:25:26;28.20;;;12.40;;
61696;SDS011;47610;52.252;20.922;2022-11-15T08:30:49;30.30;;;13.40;;
61696;SDS011;47610;52.252;20.922;2022-11-15T08:36:13;25.50;;;12.10;;
61696;SDS011;47610;52.252;20.922;2022-11-15T08:41:38;24.40;;;12.30;;
61696;SDS011;47610;52.252;20.922;2022-11-15T08:47:01;31.20;;;14.20;;
61696;SDS011;47610;52.252;20.922;2022-11-15T08:52:24;27.80;;;13.00;;
61696;SDS011;47610;52.252;20.922;2022-11-15T08:57:47;28.50;;;13.20;;
61696;SDS011;47610;52.252;20.922;2022-11-15T09:03:09;35.00;;;13.80;;
61696;SDS011;47610;52.252;20.922;2022-11-15T09:08:32;30.70;;;13.30;;
61696;SDS011;47610;52.252;20.922;2022-11-15T09:13:55;26.40;;;12.70;;
61696;SDS011;47610;52.252;20.922;2022-11-15T09:19:19;29.50;;;14.30;;
61696;SDS011;47610;52.252;20.922;2022-11-15T09:24:41;25.90;;;12.70;;
61696;SDS011;47610;52.252;20.922;2022-11-15T09:30:05;28.60;;;13.70;;
61696;SDS011;47610;52.252;20.922;2022-11-15T09:35:28;36.60;;;16.60;;
61696;SDS011;47610;52.252;20.922;2022-11-15T09:40:52;25.60;;;12.70;;
61696;SDS011;47610;52.252;20.922;2022-11-15T09:46:28;24.90;;;12.30;;
61696;SDS011;47610;52.252;20.922;2022-11-15T09:51:59;24.70;;;12.30;;
61696;SDS011;47610;52.252;20.922;2022-11-15T09:57:24;32.50;;;15.60;;
61696;SDS011;47610;52.252;20.922;2022-11-15T10:03:02;32.60;;;14.40;;
61696;SDS011;47610;52.252;20.922;2022-11-15T10:14:19;28.20;;;14.30;;
61696;SDS011;47610;52.252;20.922;2022-11-15T10:19:50;25.40;;;12.90;;
61696;SDS011;47610;52.252;20.922;2022-11-15T10:25:23;27.10;;;13.60;;
61696;SDS011;47610;52.252;20.922;2022-11-15T10:30:47;30.10;;;14.80;;
61696;SDS011;47610;52.252;20.922;2022-11-15T10:36:21;27.80;;;14.40;;
61696;SDS011;47610;52.252;20.922;2022-11-15T10:41:45;32.30;;;16.20;;
61696;SDS011;47610;52.252;20.922;2022-11-15T10:47:22;32.00;;;15.90;;
61696;SDS011;47610;52.252;20.922;2022-11-15T10:52:48;35.20;;;17.10;;
61696;SDS011;47610;52.252;20.922;2022-11-15T10:58:19;29.90;;;15.50;;
61696;SDS011;47610;52.252;20.922;2022-11-15T11:04:00;30.10;;;15.40;;
61696;SDS011;47610;52.252;20.922;2022-11-15T11:09:27;30.90;;;14.90;;
61696;SDS011;47610;52.252;20.922;2022-11-15T11:14:52;32.80;;;16.20;;
61696;SDS011;47610;52.252;20.922;2022-11-15T11:20:17;30.10;;;16.20;;
61696;SDS011;47610;52.252;20.922;2022-11-15T11:25:44;31.70;;;15.80;;
61696;SDS011;47610;52.252;20.922;2022-11-15T11:31:20;32.90;;;17.10;;
61696;SDS011;47610;52.252;20.922;2022-11-15T11:36:53;31.20;;;15.60;;
61696;SDS011;47610;52.252;20.922;2022-11-15T11:42:33;33.20;;;16.30;;
61696;SDS011;47610;52.252;20.922;2022-11-15T11:53:34;35.30;;;18.40;;
61696;SDS011;47610;52.252;20.922;2022-11-15T11:59:09;40.90;;;18.00;;
61696;SDS011;47610;52.252;20.922;2022-11-15T12:04:40;36.80;;;17.70;;
61696;SDS011;47610;52.252;20.922;2022-11-15T12:10:20;34.20;;;17.30;;
61696;SDS011;47610;52.252;20.922;2022-11-15T12:15:45;32.40;;;18.20;;
61696;SDS011;47610;52.252;20.922;2022-11-15T12:21:15;33.20;;;17.90;;
61696;SDS011;47610;52.252;20.922;2022-11-15T12:26:45;33.60;;;17.60;;
61696;SDS011;47610;52.252;20.922;2022-11-15T12:35:57;36.20;;;17.80;;
61696;SDS011;47610;52.252;20.922;2022-11-15T12:41:22;34.00;;;17.80;;
61696;SDS011;47610;52.252;20.922;2022-11-15T12:47:04;32.80;;;17.00;;
61696;SDS011;47610;52.252;20.922;2022-11-15T12:58:42;31.10;;;16.80;;
61696;SDS011;47610;52.252;20.922;2022-11-15T13:04:12;37.80;;;19.00;;
61696;SDS011;47610;52.252;20.922;2022-11-15T13:09:52;38.90;;;18.60;;
61696;SDS011;47610;52.252;20.922;2022-11-15T13:15:34;35.10;;;17.60;;
61696;SDS011;47610;52.252;20.922;2022-11-15T13:21:00;38.40;;;17.50;;
61696;SDS011;47610;52.252;20.922;2022-11-15T13:26:26;38.10;;;19.20;;
61696;SDS011;47610;52.252;20.922;2022-11-15T13:31:49;32.10;;;17.50;;
61696;SDS011;47610;52.252;20.922;2022-11-15T13:37:13;33.90;;;18.00;;
61696;SDS011;47610;52.252;20.922;2022-11-15T13:42:53;38.50;;;19.10;;
61696;SDS011;47610;52.252;20.922;2022-11-15T13:48:17;41.20;;;19.40;;
61696;SDS011;47610;52.252;20.922;2022-11-15T13:53:40;39.20;;;19.50;;
61696;SDS011;47610;52.252;20.922;2022-11-15T13:59:13;36.00;;;19.60;;
61696;SDS011;47610;52.252;20.922;2022-11-15T14:04:45;35.40;;;19.10;;
61696;SDS011;47610;52.252;20.922;2022-11-15T14:10:24;37.50;;;19.60;;
61696;SDS011;47610;52.252;20.922;2022-11-15T14:15:48;34.00;;;16.70;;
61696;SDS011;47610;52.252;20.922;2022-11-15T14:21:10;30.20;;;17.40;;
61696;SDS011;47610;52.252;20.922;2022-11-15T14:26:32;36.40;;;17.20;;
61696;SDS011;47610;52.252;20.922;2022-11-15T14:32:05;42.10;;;18.40;;
61696;SDS011;47610;52.252;20.922;2022-11-15T14:37:33;37.20;;;17.20;;
61696;SDS011;47610;52.252;20.922;2022-11-15T14:42:55;36.40;;;17.60;;
61696;SDS011;47610;52.252;20.922;2022-11-15T14:48:17;35.70;;;18.20;;
61696;SDS011;47610;52.252;20.922;2022-11-15T14:53:40;35.10;;;19.00;;
61696;SDS011;47610;52.252;20.922;2022-11-15T14:59:03;42.20;;;19.00;;
61696;SDS011;47610;52.252;20.922;2022-11-15T15:04:25;37.40;;;17.70;;
61696;SDS011;47610;52.252;20.922;2022-11-15T15:09:47;38.60;;;19.00;;
61696;SDS011;47610;52.252;20.922;2022-11-15T15:15:13;34.70;;;18.00;;
61696;SDS011;47610;52.252;20.922;2022-11-15T15:20:37;35.80;;;17.60;;
61696;SDS011;47610;52.252;20.922;2022-11-15T15:26:01;37.70;;;18.40;;
61696;SDS011;47610;52.252;20.922;2022-11-15T15:31:23;37.00;;;17.20;;
61696;SDS011;47610;52.252;20.922;2022-11-15T15:36:45;37.00;;;16.90;;
61696;SDS011;47610;52.252;20.922;2022-11-15T15:42:07;38.10;;;16.90;;
61696;SDS011;47610;52.252;20.922;2022-11-15T15:47:29;37.20;;;17.50;;
61696;SDS011;47610;52.252;20.922;2022-11-15T15:52:51;36.60;;;17.00;;
61696;SDS011;47610;52.252;20.922;2022-11-15T15:58:15;34.10;;;16.80;;
61696;SDS011;47610;52.252;20.922;2022-11-15T16:03:36;37.40;;;19.60;;
61696;SDS011;47610;52.252;20.922;2022-11-15T16:08:58;42.80;;;18.30;;
61696;SDS011;47610;52.252;20.922;2022-11-15T16:14:20;35.90;;;17.10;;
61696;SDS011;47610;52.252;20.922;2022-11-15T16:19:42;38.90;;;18.70;;
61696;SDS011;47610;52.252;20.922;2022-11-15T16:25:04;40.10;;;18.90;;
61696;SDS011;47610;52.252;20.922;2022-11-15T16:30:27;46.70;;;17.70;;
61696;SDS011;47610;52.252;20.922;2022-11-15T16:35:49;42.10;;;18.90;;
61696;SDS011;47610;52.252;20.922;2022-11-15T16:41:11;46.80;;;20.00;;
61696;SDS011;47610;52.252;20.922;2022-11-15T16:46:33;46.00;;;21.20;;
61696;SDS011;47610;52.252;20.922;2022-11-15T16:51:55;43.40;;;19.60;;
61696;SDS011;47610;52.252;20.922;2022-11-15T16:57:17;45.30;;;20.00;;
61696;SDS011;47610;52.252;20.922;2022-11-15T17:02:39;37.80;;;17.50;;
61696;SDS011;47610;52.252;20.922;2022-11-15T17:08:01;37.50;;;16.30;;
61696;SDS011;47610;52.252;20.922;2022-11-15T17:13:23;46.70;;;18.10;;
61696;SDS011;47610;52.252;20.922;2022-11-15T17:18:48;39.80;;;17.20;;
61696;SDS011;47610;52.252;20.922;2022-11-15T17:24:11;47.80;;;19.90;;
61696;SDS011;47610;52.252;20.922;2022-11-15T17:29:34;48.70;;;17.60;;
61696;SDS011;47610;52.252;20.922;2022-11-15T17:34:56;48.90;;;17.70;;
61696;SDS011;47610;52.252;20.922;2022-11-15T17:40:18;43.90;;;17.80;;
61696;SDS011;47610;52.252;20.922;2022-11-15T17:45:40;34.70;;;15.70;;
61696;SDS011;47610;52.252;20.922;2022-11-15T17:51:03;41.80;;;17.00;;
61696;SDS011;47610;52.252;20.922;2022-11-15T17:56:27;34.50;;;15.50;;
61696;SDS011;47610;52.252;20.922;2022-11-15T18:01:49;38.90;;;16.00;;
61696;SDS011;47610;52.252;20.922;2022-11-15T18:07:11;34.30;;;14.70;;
61696;SDS011;47610;52.252;20.922;2022-11-15T18:12:33;28.50;;;12.30;;
61696;SDS011;47610;52.252;20.922;2022-11-15T18:17:56;42.70;;;20.00;;
61696;SDS011;47610;52.252;20.922;2022-11-15T18:23:17;38.50;;;16.90;;
61696;SDS011;47610;52.252;20.922;2022-11-15T18:28:40;32.50;;;12.80;;
61696;SDS011;47610;52.252;20.922;2022-11-15T18:34:04;25.10;;;11.80;;
61696;SDS011;47610;52.252;20.922;2022-11-15T18:39:27;30.60;;;13.50;;
61696;SDS011;47610;52.252;20.922;2022-11-15T18:44:50;28.10;;;12.30;;
61696;SDS011;47610;52.252;20.922;2022-11-15T18:50:12;28.20;;;12.50;;
61696;SDS011;47610;52.252;20.922;2022-11-15T18:55:35;31.80;;;13.70;;
61696;SDS011;47610;52.252;20.922;2022-11-15T19:01:00;26.80;;;12.50;;
61696;SDS011;47610;52.252;20.922;2022-11-15T19:06:24;27.00;;;12.40;;
61696;SDS011;47610;52.252;20.922;2022-11-15T19:11:49;30.00;;;12.60;;
61696;SDS011;47610;52.252;20.922;2022-11-15T19:17:12;30.40;;;12.90;;
61696;SDS011;47610;52.252;20.922;2022-11-15T19:22:37;26.00;;;11.70;;
61696;SDS011;47610;52.252;20.922;2022-11-15T19:28:02;47.30;;;24.50;;
61696;SDS011;47610;52.252;20.922;2022-11-15T19:33:26;38.30;;;17.20;;
61696;SDS011;47610;52.252;20.922;2022-11-15T19:38:48;31.00;;;13.70;;
61696;SDS011;47610;52.252;20.922;2022-11-15T19:44:11;29.40;;;12.70;;
61696;SDS011;47610;52.252;20.922;2022-11-15T19:49:33;25.00;;;12.00;;
61696;SDS011;47610;52.252;20.922;2022-11-15T19:54:55;25.30;;;11.20;;
61696;SDS011;47610;52.252;20.922;2022-11-15T20:00:19;25.90;;;11.00;;
61696;SDS011;47610;52.252;20.922;2022-11-15T20:05:41;27.40;;;11.90;;
61696;SDS011;47610;52.252;20.922;2022-11-15T20:11:04;17.60;;;8.70;;
61696;SDS011;47610;52.252;20.922;2022-11-15T20:16:28;32.70;;;16.40;;
61696;SDS011;47610;52.252;20.922;2022-11-15T20:21:50;25.40;;;11.20;;
61696;SDS011;47610;52.252;20.922;2022-11-15T20:27:12;21.80;;;10.60;;
61696;SDS011;47610;52.252;20.922;2022-11-15T20:32:34;27.80;;;12.10;;
61696;SDS011;47610;52.252;20.922;2022-11-15T20:37:58;28.20;;;12.50;;
61696;SDS011;47610;52.252;20.922;2022-11-15T20:43:21;22.80;;;11.30;;
61696;SDS011;47610;52.252;20.922;2022-11-15T20:48:43;24.80;;;11.60;;
61696;SDS011;47610;52.252;20.922;2022-11-15T20:54:06;23.30;;;11.50;;
61696;SDS011;47610;52.252;20.922;2022-11-15T20:59:28;25.30;;;11.60;;
61696;SDS011;47610;52.252;20.922;2022-11-15T21:04:51;25.90;;;12.70;;
61696;SDS011;47610;52.252;20.922;2022-11-15T21:10:14;23.90;;;12.20;;
61696;SDS011;47610;52.252;20.922;2022-11-15T21:15:37;22.80;;;10.60;;
61696;SDS011;47610;52.252;20.922;2022-11-15T21:21:04;23.80;;;11.50;;
61696;SDS011;47610;52.252;20.922;2022-11-15T21:26:27;27.50;;;13.90;;
61696;SDS011;47610;52.252;20.922;2022-11-15T21:31:50;24.30;;;12.20;;
61696;SDS011;47610;52.252;20.922;2022-11-15T21:37:13;21.10;;;10.80;;
61696;SDS011;47610;52.252;20.922;2022-11-15T21:42:35;15.30;;;7.50;;
61696;SDS011;47610;52.252;20.922;2022-11-15T21:47:58;17.00;;;8.60;;
61696;SDS011;47610;52.252;20.922;2022-11-15T21:53:21;15.40;;;8.30;;
61696;SDS011;47610;52.252;20.922;2022-11-15T21:58:43;13.60;;;7.30;;
61696;SDS011;47610;52.252;20.922;2022-11-15T22:04:05;15.30;;;6.80;;
61696;SDS011;47610;52.252;20.922;2022-11-15T22:09:28;15.30;;;7.10;;
61696;SDS011;47610;52.252;20.922;2022-11-15T22:14:50;17.90;;;7.70;;
61696;SDS011;47610;52.252;20.922;2022-11-15T22:20:12;17.20;;;8.30;;
61696;SDS011;47610;52.252;20.922;2022-11-15T22:25:36;18.30;;;8.80;;
61696;SDS011;47610;52.252;20.922;2022-11-15T22:30:59;19.40;;;9.20;;
61696;SDS011;47610;52.252;20.922;2022-11-15T22:36:22;21.80;;;9.30;;
61696;SDS011;47610;52.252;20.922;2022-11-15T22:41:45;21.40;;;8.90;;
61696;SDS011;47610;52.252;20.922;2022-11-15T22:47:07;15.70;;;7.80;;
61696;SDS011;47610;52.252;20.922;2022-11-15T22:52:29;19.50;;;9.40;;
61696;SDS011;47610;52.252;20.922;2022-11-15T22:57:52;21.30;;;9.10;;
61696;SDS011;47610;52.252;20.922;2022-11-15T23:03:14;22.20;;;8.80;;
61696;SDS011;47610;52.252;20.922;2022-11-15T23:08:36;23.40;;;10.30;;
61696;SDS011;47610;52.252;20.922;2022-11-15T23:13:59;25.50;;;11.40;;
61696;SDS011;47610;52.252;20.922;2022-11-15T23:19:21;23.20;;;9.80;;
61696;SDS011;47610;52.252;20.922;2022-11-15T23:24:43;25.10;;;11.00;;
61696;SDS011;47610;52.252;20.922;2022-11-15T23:30:07;32.00;;;13.30;;
61696;SDS011;47610;52.252;20.922;2022-11-15T23:35:30;24.00;;;10.50;;
61696;SDS011;47610;52.252;20.922;2022-11-15T23:40:52;27.10;;;11.80;;
61696;SDS011;47610;52.252;20.922;2022-11-15T23:46:15;24.00;;;11.10;;
61696;SDS011;47610;52.252;20.922;2022-11-15T23:51:37;23.90;;;10.90;;
61696;SDS011;47610;52.252;20.922;2022-11-15T23:56:59;28.20;;;11.50;;
